sensor_id;sensor_type;location;lat;lon;timestamp;P1;durP1;ratioP1;P2;durP2;ratioP2
20629;SDS011;17386;43.846;25.950;2024-01-07T00:01:24;19.63;;;9.75;;
20629;SDS011;17386;43.846;25.950;2024-01-07T00:03:50;22.67;;;9.77;;
20629;SDS011;17386;43.846;25.950;2024-01-07T00:06:16;18.55;;;9.50;;
20629;SDS011;17386;43.846;25.950;2024-01-07T00:08:41;22.05;;;9.93;;
20629;SDS011;17386;43.846;25.950;2024-01-07T00:11:07;23.00;;;11.65;;
20629;SDS011;17386;43.846;25.950;2024-01-07T00:13:32;27.02;;;11.88;;
20629;SDS011;17386;43.846;25.950;2024-01-07T00:15:58;28.88;;;12.88;;
20629;SDS011;17386;43.846;25.950;2024-01-07T00:18:23;22.77;;;11.30;;
20629;SDS011;17386;43.846;25.950;2024-01-07T00:20:49;26.10;;;12.70;;
20629;SDS011;17386;43.846;25.950;2024-01-07T00:23:15;26.10;;;12.45;;
20629;SDS011;17386;43.846;25.950;2024-01-07T00:25:40;33.30;;;13.45;;
20629;SDS011;17386;43.846;25.950;2024-01-07T00:28:06;26.80;;;12.73;;
20629;SDS011;17386;43.846;25.950;2024-01-07T00:30:31;35.38;;;13.13;;
20629;SDS011;17386;43.846;25.950;2024-01-07T00:32:57;44.53;;;13.57;;
20629;SDS011;17386;43.846;25.950;2024-01-07T00:35:22;25.20;;;12.30;;
20629;SDS011;17386;43.846;25.950;2024-01-07T00:37:48;33.58;;;15.05;;
20629;SDS011;17386;43.846;25.950;2024-01-07T00:40:13;28.80;;;11.65;;
20629;SDS011;17386;43.846;25.950;2024-01-07T00:42:38;17.65;;;8.60;;
20629;SDS011;17386;43.846;25.950;2024-01-07T00:45:04;19.20;;;7.82;;
20629;SDS011;17386;43.846;25.950;2024-01-07T00:47:30;13.63;;;6.13;;
20629;SDS011;17386;43.846;25.950;2024-01-07T00:49:55;8.60;;;4.13;;
20629;SDS011;17386;43.846;25.950;2024-01-07T00:52:20;11.27;;;4.22;;
20629;SDS011;17386;43.846;25.950;2024-01-07T00:54:48;8.35;;;3.45;;
20629;SDS011;17386;43.846;25.950;2024-01-07T00:57:13;6.70;;;3.45;;
20629;SDS011;17386;43.846;25.950;2024-01-07T00:59:39;6.70;;;3.97;;
20629;SDS011;17386;43.846;25.950;2024-01-07T01:02:05;6.95;;;3.75;;
20629;SDS011;17386;43.846;25.950;2024-01-07T01:04:30;10.02;;;4.50;;
20629;SDS011;17386;43.846;25.950;2024-01-07T01:06:55;6.78;;;3.95;;
20629;SDS011;17386;43.846;25.950;2024-01-07T01:09:21;9.68;;;4.57;;
20629;SDS011;17386;43.846;25.950;2024-01-07T01:11:46;8.52;;;3.50;;
20629;SDS011;17386;43.846;25.950;2024-01-07T01:14:12;4.97;;;3.53;;
20629;SDS011;17386;43.846;25.950;2024-01-07T01:16:37;7.70;;;4.22;;
20629;SDS011;17386;43.846;25.950;2024-01-07T01:19:02;5.43;;;3.33;;
20629;SDS011;17386;43.846;25.950;2024-01-07T01:21:28;6.80;;;3.63;;
20629;SDS011;17386;43.846;25.950;2024-01-07T01:23:54;7.63;;;3.15;;
20629;SDS011;17386;43.846;25.950;2024-01-07T01:26:19;6.65;;;2.70;;
20629;SDS011;17386;43.846;25.950;2024-01-07T01:28:44;5.82;;;2.83;;
20629;SDS011;17386;43.846;25.950;2024-01-07T01:31:12;5.82;;;3.10;;
20629;SDS011;17386;43.846;25.950;2024-01-07T01:33:39;6.55;;;2.97;;
20629;SDS011;17386;43.846;25.950;2024-01-07T01:36:05;6.75;;;2.55;;
20629;SDS011;17386;43.846;25.950;2024-01-07T01:38:31;7.90;;;3.45;;
20629;SDS011;17386;43.846;25.950;2024-01-07T01:40:56;5.45;;;2.80;;
20629;SDS011;17386;43.846;25.950;2024-01-07T01:43:25;5.85;;;2.53;;
20629;SDS011;17386;43.846;25.950;2024-01-07T01:45:54;6.45;;;2.97;;
20629;SDS011;17386;43.846;25.950;2024-01-07T01:48:21;6.68;;;2.55;;
20629;SDS011;17386;43.846;25.950;2024-01-07T01:50:51;4.53;;;2.40;;
20629;SDS011;17386;43.846;25.950;2024-01-07T01:53:19;4.25;;;2.53;;
20629;SDS011;17386;43.846;25.950;2024-01-07T01:55:44;5.15;;;3.00;;
20629;SDS011;17386;43.846;25.950;2024-01-07T01:58:10;8.00;;;3.20;;
20629;SDS011;17386;43.846;25.950;2024-01-07T02:00:38;5.45;;;2.78;;
20629;SDS011;17386;43.846;25.950;2024-01-07T02:03:04;7.15;;;2.67;;
20629;SDS011;17386;43.846;25.950;2024-01-07T02:05:29;7.38;;;2.75;;
20629;SDS011;17386;43.846;25.950;2024-01-07T02:07:55;4.25;;;2.75;;
20629;SDS011;17386;43.846;25.950;2024-01-07T02:10:21;7.00;;;3.05;;
20629;SDS011;17386;43.846;25.950;2024-01-07T02:12:47;6.13;;;2.92;;
20629;SDS011;17386;43.846;25.950;2024-01-07T02:15:13;8.95;;;3.15;;
20629;SDS011;17386;43.846;25.950;2024-01-07T02:17:38;6.65;;;2.95;;
20629;SDS011;17386;43.846;25.950;2024-01-07T02:20:04;5.10;;;3.13;;
20629;SDS011;17386;43.846;25.950;2024-01-07T02:22:30;7.80;;;2.78;;
20629;SDS011;17386;43.846;25.950;2024-01-07T02:24:55;6.22;;;3.03;;
20629;SDS011;17386;43.846;25.950;2024-01-07T02:27:21;9.68;;;3.05;;
20629;SDS011;17386;43.846;25.950;2024-01-07T02:29:46;6.25;;;3.20;;
20629;SDS011;17386;43.846;25.950;2024-01-07T02:32:11;5.38;;;3.15;;
20629;SDS011;17386;43.846;25.950;2024-01-07T02:34:37;7.50;;;3.10;;
20629;SDS011;17386;43.846;25.950;2024-01-07T02:37:02;6.72;;;2.80;;
20629;SDS011;17386;43.846;25.950;2024-01-07T02:39:28;5.35;;;2.75;;
20629;SDS011;17386;43.846;25.950;2024-01-07T02:41:53;5.32;;;2.50;;
20629;SDS011;17386;43.846;25.950;2024-01-07T02:44:18;7.43;;;3.08;;
20629;SDS011;17386;43.846;25.950;2024-01-07T02:46:44;6.03;;;2.88;;
20629;SDS011;17386;43.846;25.950;2024-01-07T02:49:11;6.43;;;3.60;;
20629;SDS011;17386;43.846;25.950;2024-01-07T02:51:37;8.05;;;3.53;;
20629;SDS011;17386;43.846;25.950;2024-01-07T02:54:02;5.65;;;2.85;;
20629;SDS011;17386;43.846;25.950;2024-01-07T02:56:27;6.07;;;2.55;;
20629;SDS011;17386;43.846;25.950;2024-01-07T02:58:53;6.70;;;3.13;;
20629;SDS011;17386;43.846;25.950;2024-01-07T03:01:21;6.38;;;3.08;;
20629;SDS011;17386;43.846;25.950;2024-01-07T03:03:47;7.75;;;2.83;;
20629;SDS011;17386;43.846;25.950;2024-01-07T03:06:13;7.95;;;3.00;;
20629;SDS011;17386;43.846;25.950;2024-01-07T03:08:38;6.60;;;3.55;;
20629;SDS011;17386;43.846;25.950;2024-01-07T03:11:04;5.90;;;3.08;;
20629;SDS011;17386;43.846;25.950;2024-01-07T03:13:30;7.97;;;3.45;;
20629;SDS011;17386;43.846;25.950;2024-01-07T03:15:55;8.35;;;2.97;;
20629;SDS011;17386;43.846;25.950;2024-01-07T03:18:21;5.40;;;2.92;;
20629;SDS011;17386;43.846;25.950;2024-01-07T03:20:46;5.68;;;3.00;;
20629;SDS011;17386;43.846;25.950;2024-01-07T03:23:12;8.18;;;2.72;;
20629;SDS011;17386;43.846;25.950;2024-01-07T03:25:37;6.40;;;3.22;;
20629;SDS011;17386;43.846;25.950;2024-01-07T03:28:02;7.95;;;2.80;;
20629;SDS011;17386;43.846;25.950;2024-01-07T03:30:28;6.95;;;3.00;;
20629;SDS011;17386;43.846;25.950;2024-01-07T03:32:53;4.90;;;2.88;;
20629;SDS011;17386;43.846;25.950;2024-01-07T03:35:19;7.75;;;2.90;;
20629;SDS011;17386;43.846;25.950;2024-01-07T03:37:44;8.05;;;2.85;;
20629;SDS011;17386;43.846;25.950;2024-01-07T03:40:10;4.22;;;2.50;;
20629;SDS011;17386;43.846;25.950;2024-01-07T03:42:39;4.75;;;2.85;;
20629;SDS011;17386;43.846;25.950;2024-01-07T03:45:04;6.68;;;2.65;;
20629;SDS011;17386;43.846;25.950;2024-01-07T03:47:30;6.53;;;2.53;;
20629;SDS011;17386;43.846;25.950;2024-01-07T03:49:56;4.00;;;2.33;;
20629;SDS011;17386;43.846;25.950;2024-01-07T03:52:22;4.57;;;2.40;;
20629;SDS011;17386;43.846;25.950;2024-01-07T03:54:47;5.30;;;1.98;;
20629;SDS011;17386;43.846;25.950;2024-01-07T03:57:13;4.35;;;2.10;;
20629;SDS011;17386;43.846;25.950;2024-01-07T03:59:38;4.05;;;2.00;;
20629;SDS011;17386;43.846;25.950;2024-01-07T04:02:03;3.20;;;1.83;;
20629;SDS011;17386;43.846;25.950;2024-01-07T04:04:29;6.63;;;2.00;;
20629;SDS011;17386;43.846;25.950;2024-01-07T04:06:54;3.72;;;1.63;;
20629;SDS011;17386;43.846;25.950;2024-01-07T04:09:20;5.65;;;1.80;;
20629;SDS011;17386;43.846;25.950;2024-01-07T04:11:45;2.65;;;1.58;;
20629;SDS011;17386;43.846;25.950;2024-01-07T04:14:13;4.43;;;1.55;;
20629;SDS011;17386;43.846;25.950;2024-01-07T04:16:39;4.55;;;1.80;;
20629;SDS011;17386;43.846;25.950;2024-01-07T04:19:05;4.43;;;1.63;;
20629;SDS011;17386;43.846;25.950;2024-01-07T04:21:30;3.15;;;1.38;;
20629;SDS011;17386;43.846;25.950;2024-01-07T04:23:56;2.88;;;1.35;;
20629;SDS011;17386;43.846;25.950;2024-01-07T04:26:21;4.80;;;1.58;;
20629;SDS011;17386;43.846;25.950;2024-01-07T04:28:47;5.00;;;1.90;;
20629;SDS011;17386;43.846;25.950;2024-01-07T04:31:12;4.50;;;2.00;;
20629;SDS011;17386;43.846;25.950;2024-01-07T04:33:37;4.32;;;1.60;;
20629;SDS011;17386;43.846;25.950;2024-01-07T04:36:03;5.53;;;1.52;;
20629;SDS011;17386;43.846;25.950;2024-01-07T04:38:31;3.92;;;1.42;;
20629;SDS011;17386;43.846;25.950;2024-01-07T04:40:57;6.68;;;1.60;;
20629;SDS011;17386;43.846;25.950;2024-01-07T04:43:22;4.00;;;1.42;;
20629;SDS011;17386;43.846;25.950;2024-01-07T04:45:47;4.45;;;1.80;;
20629;SDS011;17386;43.846;25.950;2024-01-07T04:48:13;3.95;;;1.60;;
20629;SDS011;17386;43.846;25.950;2024-01-07T04:50:41;4.20;;;1.55;;
20629;SDS011;17386;43.846;25.950;2024-01-07T04:53:07;5.20;;;2.22;;
20629;SDS011;17386;43.846;25.950;2024-01-07T04:55:33;3.40;;;1.80;;
20629;SDS011;17386;43.846;25.950;2024-01-07T04:57:59;3.67;;;1.65;;
20629;SDS011;17386;43.846;25.950;2024-01-07T05:00:24;4.80;;;1.75;;
20629;SDS011;17386;43.846;25.950;2024-01-07T05:02:50;3.45;;;1.92;;
20629;SDS011;17386;43.846;25.950;2024-01-07T05:05:15;4.93;;;2.25;;
20629;SDS011;17386;43.846;25.950;2024-01-07T05:07:41;4.25;;;2.00;;
20629;SDS011;17386;43.846;25.950;2024-01-07T05:10:07;3.42;;;2.08;;
20629;SDS011;17386;43.846;25.950;2024-01-07T05:12:32;4.40;;;2.08;;
20629;SDS011;17386;43.846;25.950;2024-01-07T05:14:58;3.78;;;2.15;;
20629;SDS011;17386;43.846;25.950;2024-01-07T05:17:23;6.05;;;2.70;;
20629;SDS011;17386;43.846;25.950;2024-01-07T05:19:48;4.78;;;2.58;;
20629;SDS011;17386;43.846;25.950;2024-01-07T05:22:14;5.63;;;2.53;;
20629;SDS011;17386;43.846;25.950;2024-01-07T05:24:39;5.38;;;2.90;;
20629;SDS011;17386;43.846;25.950;2024-01-07T05:27:05;4.65;;;2.35;;
20629;SDS011;17386;43.846;25.950;2024-01-07T05:29:31;7.45;;;2.78;;
20629;SDS011;17386;43.846;25.950;2024-01-07T05:31:58;5.85;;;2.55;;
20629;SDS011;17386;43.846;25.950;2024-01-07T05:34:25;5.70;;;2.92;;
20629;SDS011;17386;43.846;25.950;2024-01-07T05:36:51;4.15;;;2.30;;
20629;SDS011;17386;43.846;25.950;2024-01-07T05:39:16;5.28;;;2.83;;
20629;SDS011;17386;43.846;25.950;2024-01-07T05:41:42;5.65;;;2.88;;
20629;SDS011;17386;43.846;25.950;2024-01-07T05:44:07;4.90;;;2.80;;
20629;SDS011;17386;43.846;25.950;2024-01-07T05:46:33;4.97;;;2.55;;
20629;SDS011;17386;43.846;25.950;2024-01-07T05:48:59;6.50;;;2.92;;
20629;SDS011;17386;43.846;25.950;2024-01-07T05:51:24;5.43;;;3.10;;
20629;SDS011;17386;43.846;25.950;2024-01-07T05:53:49;7.38;;;3.53;;
20629;SDS011;17386;43.846;25.950;2024-01-07T05:56:15;4.43;;;2.80;;
20629;SDS011;17386;43.846;25.950;2024-01-07T05:58:40;4.85;;;3.17;;
20629;SDS011;17386;43.846;25.950;2024-01-07T06:01:06;9.55;;;3.53;;
20629;SDS011;17386;43.846;25.950;2024-01-07T06:03:33;8.98;;;3.78;;
20629;SDS011;17386;43.846;25.950;2024-01-07T06:05:59;11.43;;;3.67;;
20629;SDS011;17386;43.846;25.950;2024-01-07T06:08:25;7.20;;;3.63;;
20629;SDS011;17386;43.846;25.950;2024-01-07T06:10:51;8.20;;;4.10;;
20629;SDS011;17386;43.846;25.950;2024-01-07T06:13:16;8.98;;;4.20;;
20629;SDS011;17386;43.846;25.950;2024-01-07T06:15:42;8.07;;;3.90;;
20629;SDS011;17386;43.846;25.950;2024-01-07T06:18:07;7.72;;;3.80;;
20629;SDS011;17386;43.846;25.950;2024-01-07T06:20:32;8.73;;;4.05;;
20629;SDS011;17386;43.846;25.950;2024-01-07T06:22:58;10.40;;;4.00;;
20629;SDS011;17386;43.846;25.950;2024-01-07T06:25:23;10.05;;;4.25;;
20629;SDS011;17386;43.846;25.950;2024-01-07T06:27:51;8.93;;;4.18;;
20629;SDS011;17386;43.846;25.950;2024-01-07T06:30:16;8.88;;;4.32;;
20629;SDS011;17386;43.846;25.950;2024-01-07T06:32:44;10.82;;;4.32;;
20629;SDS011;17386;43.846;25.950;2024-01-07T06:35:10;12.73;;;4.72;;
20629;SDS011;17386;43.846;25.950;2024-01-07T06:37:36;8.88;;;4.18;;
20629;SDS011;17386;43.846;25.950;2024-01-07T06:40:01;11.02;;;4.35;;
20629;SDS011;17386;43.846;25.950;2024-01-07T06:42:27;8.55;;;4.28;;
20629;SDS011;17386;43.846;25.950;2024-01-07T06:44:52;8.32;;;4.00;;
20629;SDS011;17386;43.846;25.950;2024-01-07T06:47:18;9.93;;;4.13;;
20629;SDS011;17386;43.846;25.950;2024-01-07T06:49:44;11.10;;;4.50;;
20629;SDS011;17386;43.846;25.950;2024-01-07T06:52:09;6.43;;;3.55;;
20629;SDS011;17386;43.846;25.950;2024-01-07T06:54:35;11.52;;;4.07;;
20629;SDS011;17386;43.846;25.950;2024-01-07T06:57:01;8.10;;;3.80;;
20629;SDS011;17386;43.846;25.950;2024-01-07T06:59:27;10.70;;;4.25;;
20629;SDS011;17386;43.846;25.950;2024-01-07T07:01:52;7.85;;;4.20;;
20629;SDS011;17386;43.846;25.950;2024-01-07T07:04:20;8.50;;;3.70;;
20629;SDS011;17386;43.846;25.950;2024-01-07T07:06:45;6.32;;;3.58;;
20629;SDS011;17386;43.846;25.950;2024-01-07T07:09:11;8.80;;;3.83;;
20629;SDS011;17386;43.846;25.950;2024-01-07T07:11:37;8.13;;;3.75;;
20629;SDS011;17386;43.846;25.950;2024-01-07T07:14:03;7.85;;;3.67;;
20629;SDS011;17386;43.846;25.950;2024-01-07T07:16:28;9.45;;;3.60;;
20629;SDS011;17386;43.846;25.950;2024-01-07T07:18:54;8.45;;;3.28;;
20629;SDS011;17386;43.846;25.950;2024-01-07T07:21:19;5.82;;;3.20;;
20629;SDS011;17386;43.846;25.950;2024-01-07T07:23:44;5.80;;;3.45;;
20629;SDS011;17386;43.846;25.950;2024-01-07T07:26:10;6.05;;;3.33;;
20629;SDS011;17386;43.846;25.950;2024-01-07T07:28:35;8.25;;;3.60;;
20629;SDS011;17386;43.846;25.950;2024-01-07T07:31:01;7.72;;;3.65;;
20629;SDS011;17386;43.846;25.950;2024-01-07T07:33:26;10.68;;;3.60;;
20629;SDS011;17386;43.846;25.950;2024-01-07T07:35:51;8.40;;;3.67;;
20629;SDS011;17386;43.846;25.950;2024-01-07T07:38:17;6.20;;;3.85;;
20629;SDS011;17386;43.846;25.950;2024-01-07T07:40:42;9.75;;;3.95;;
20629;SDS011;17386;43.846;25.950;2024-01-07T07:43:09;8.88;;;4.00;;
20629;SDS011;17386;43.846;25.950;2024-01-07T07:45:35;8.80;;;4.00;;
20629;SDS011;17386;43.846;25.950;2024-01-07T07:48:00;9.57;;;3.85;;
20629;SDS011;17386;43.846;25.950;2024-01-07T07:50:26;9.50;;;4.10;;
20629;SDS011;17386;43.846;25.950;2024-01-07T07:52:51;8.48;;;3.78;;
20629;SDS011;17386;43.846;25.950;2024-01-07T07:55:16;7.00;;;3.13;;
20629;SDS011;17386;43.846;25.950;2024-01-07T07:57:42;6.95;;;3.55;;
20629;SDS011;17386;43.846;25.950;2024-01-07T08:00:07;9.27;;;4.22;;
20629;SDS011;17386;43.846;25.950;2024-01-07T08:02:37;6.20;;;2.97;;
20629;SDS011;17386;43.846;25.950;2024-01-07T08:05:03;4.93;;;2.75;;
20629;SDS011;17386;43.846;25.950;2024-01-07T08:07:29;7.55;;;3.53;;
20629;SDS011;17386;43.846;25.950;2024-01-07T08:09:54;8.43;;;3.45;;
20629;SDS011;17386;43.846;25.950;2024-01-07T08:14:47;5.30;;;3.23;;
20629;SDS011;17386;43.846;25.950;2024-01-07T08:17:12;5.53;;;2.92;;
20629;SDS011;17386;43.846;25.950;2024-01-07T08:19:38;7.57;;;3.42;;
20629;SDS011;17386;43.846;25.950;2024-01-07T08:22:03;4.97;;;2.80;;
20629;SDS011;17386;43.846;25.950;2024-01-07T08:24:29;7.95;;;2.80;;
20629;SDS011;17386;43.846;25.950;2024-01-07T08:26:54;5.72;;;3.10;;
20629;SDS011;17386;43.846;25.950;2024-01-07T08:29:20;6.38;;;2.90;;
20629;SDS011;17386;43.846;25.950;2024-01-07T08:31:45;5.32;;;2.80;;
20629;SDS011;17386;43.846;25.950;2024-01-07T08:34:11;10.02;;;3.58;;
20629;SDS011;17386;43.846;25.950;2024-01-07T08:36:36;7.25;;;2.85;;
20629;SDS011;17386;43.846;25.950;2024-01-07T08:39:01;5.88;;;3.53;;
20629;SDS011;17386;43.846;25.950;2024-01-07T08:41:27;5.07;;;2.60;;
20629;SDS011;17386;43.846;25.950;2024-01-07T08:43:52;5.25;;;1.95;;
20629;SDS011;17386;43.846;25.950;2024-01-07T08:46:21;6.57;;;2.08;;
20629;SDS011;17386;43.846;25.950;2024-01-07T08:48:46;6.63;;;2.40;;
20629;SDS011;17386;43.846;25.950;2024-01-07T08:51:12;8.27;;;2.47;;
20629;SDS011;17386;43.846;25.950;2024-01-07T08:53:37;6.10;;;2.13;;
20629;SDS011;17386;43.846;25.950;2024-01-07T08:56:03;5.53;;;2.40;;
20629;SDS011;17386;43.846;25.950;2024-01-07T08:58:29;8.15;;;3.47;;
20629;SDS011;17386;43.846;25.950;2024-01-07T09:00:54;4.15;;;2.35;;
20629;SDS011;17386;43.846;25.950;2024-01-07T09:03:19;7.47;;;4.00;;
20629;SDS011;17386;43.846;25.950;2024-01-07T09:05:45;4.13;;;1.85;;
20629;SDS011;17386;43.846;25.950;2024-01-07T09:08:10;5.53;;;1.85;;
20629;SDS011;17386;43.846;25.950;2024-01-07T09:10:39;5.65;;;1.98;;
20629;SDS011;17386;43.846;25.950;2024-01-07T09:13:05;3.38;;;2.10;;
20629;SDS011;17386;43.846;25.950;2024-01-07T09:15:31;4.93;;;2.20;;
20629;SDS011;17386;43.846;25.950;2024-01-07T09:17:56;4.53;;;2.53;;
20629;SDS011;17386;43.846;25.950;2024-01-07T09:20:22;5.95;;;2.80;;
20629;SDS011;17386;43.846;25.950;2024-01-07T09:22:47;6.80;;;2.25;;
20629;SDS011;17386;43.846;25.950;2024-01-07T09:25:13;5.40;;;2.20;;
20629;SDS011;17386;43.846;25.950;2024-01-07T09:27:39;6.40;;;1.52;;
20629;SDS011;17386;43.846;25.950;2024-01-07T09:30:04;5.25;;;1.65;;
20629;SDS011;17386;43.846;25.950;2024-01-07T09:32:30;4.10;;;1.35;;
20629;SDS011;17386;43.846;25.950;2024-01-07T09:34:56;3.85;;;1.83;;
20629;SDS011;17386;43.846;25.950;2024-01-07T09:37:22;5.95;;;1.83;;
20629;SDS011;17386;43.846;25.950;2024-01-07T09:39:48;7.53;;;2.67;;
20629;SDS011;17386;43.846;25.950;2024-01-07T09:42:15;10.00;;;2.85;;
20629;SDS011;17386;43.846;25.950;2024-01-07T09:44:41;9.25;;;2.83;;
20629;SDS011;17386;43.846;25.950;2024-01-07T09:47:11;5.43;;;2.53;;
20629;SDS011;17386;43.846;25.950;2024-01-07T09:49:38;12.02;;;3.67;;
20629;SDS011;17386;43.846;25.950;2024-01-07T09:52:04;8.75;;;2.90;;
20629;SDS011;17386;43.846;25.950;2024-01-07T09:54:31;3.42;;;1.67;;
20629;SDS011;17386;43.846;25.950;2024-01-07T09:57:01;7.75;;;2.92;;
20629;SDS011;17386;43.846;25.950;2024-01-07T09:59:28;7.47;;;2.92;;
20629;SDS011;17386;43.846;25.950;2024-01-07T10:01:54;9.02;;;3.08;;
20629;SDS011;17386;43.846;25.950;2024-01-07T10:04:20;6.65;;;2.90;;
20629;SDS011;17386;43.846;25.950;2024-01-07T10:06:46;10.73;;;4.20;;
20629;SDS011;17386;43.846;25.950;2024-01-07T10:09:11;16.30;;;8.13;;
20629;SDS011;17386;43.846;25.950;2024-01-07T10:11:38;19.70;;;10.45;;
20629;SDS011;17386;43.846;25.950;2024-01-07T10:14:04;21.80;;;9.63;;
20629;SDS011;17386;43.846;25.950;2024-01-07T10:16:29;22.50;;;11.77;;
20629;SDS011;17386;43.846;25.950;2024-01-07T10:18:57;21.27;;;10.95;;
20629;SDS011;17386;43.846;25.950;2024-01-07T10:21:22;22.10;;;11.10;;
20629;SDS011;17386;43.846;25.950;2024-01-07T10:23:48;22.63;;;11.63;;
20629;SDS011;17386;43.846;25.950;2024-01-07T10:26:13;24.02;;;10.77;;
20629;SDS011;17386;43.846;25.950;2024-01-07T10:28:39;23.05;;;11.30;;
20629;SDS011;17386;43.846;25.950;2024-01-07T10:31:05;23.50;;;11.82;;
20629;SDS011;17386;43.846;25.950;2024-01-07T10:33:31;24.08;;;12.50;;
20629;SDS011;17386;43.846;25.950;2024-01-07T10:36:04;23.10;;;11.73;;
20629;SDS011;17386;43.846;25.950;2024-01-07T10:38:34;22.88;;;11.63;;
20629;SDS011;17386;43.846;25.950;2024-01-07T10:41:00;25.35;;;12.18;;
20629;SDS011;17386;43.846;25.950;2024-01-07T10:43:28;21.98;;;11.13;;
20629;SDS011;17386;43.846;25.950;2024-01-07T10:45:54;22.80;;;10.57;;
20629;SDS011;17386;43.846;25.950;2024-01-07T10:48:20;18.73;;;10.43;;
20629;SDS011;17386;43.846;25.950;2024-01-07T10:50:47;20.23;;;10.23;;
20629;SDS011;17386;43.846;25.950;2024-01-07T10:53:17;20.88;;;10.73;;
20629;SDS011;17386;43.846;25.950;2024-01-07T10:55:54;20.98;;;10.82;;
20629;SDS011;17386;43.846;25.950;2024-01-07T10:58:28;19.38;;;9.57;;
20629;SDS011;17386;43.846;25.950;2024-01-07T11:00:55;18.25;;;9.60;;
20629;SDS011;17386;43.846;25.950;2024-01-07T11:03:27;18.65;;;9.15;;
20629;SDS011;17386;43.846;25.950;2024-01-07T11:09:14;18.45;;;9.35;;
20629;SDS011;17386;43.846;25.950;2024-01-07T11:11:45;16.23;;;9.70;;
20629;SDS011;17386;43.846;25.950;2024-01-07T11:17:06;21.73;;;8.30;;
20629;SDS011;17386;43.846;25.950;2024-01-07T11:19:32;18.98;;;9.10;;
20629;SDS011;17386;43.846;25.950;2024-01-07T11:22:20;14.27;;;8.57;;
20629;SDS011;17386;43.846;25.950;2024-01-07T11:24:48;16.85;;;7.93;;
20629;SDS011;17386;43.846;25.950;2024-01-07T11:27:14;15.68;;;7.85;;
20629;SDS011;17386;43.846;25.950;2024-01-07T11:29:40;17.10;;;7.95;;
20629;SDS011;17386;43.846;25.950;2024-01-07T11:32:06;15.73;;;7.50;;
20629;SDS011;17386;43.846;25.950;2024-01-07T11:34:38;13.68;;;6.93;;
20629;SDS011;17386;43.846;25.950;2024-01-07T11:37:04;16.38;;;7.63;;
20629;SDS011;17386;43.846;25.950;2024-01-07T11:39:34;13.65;;;7.32;;
20629;SDS011;17386;43.846;25.950;2024-01-07T11:42:01;13.68;;;7.25;;
20629;SDS011;17386;43.846;25.950;2024-01-07T11:44:28;14.40;;;7.00;;
20629;SDS011;17386;43.846;25.950;2024-01-07T11:46:54;12.75;;;7.00;;
20629;SDS011;17386;43.846;25.950;2024-01-07T11:49:19;11.43;;;6.03;;
20629;SDS011;17386;43.846;25.950;2024-01-07T11:51:46;10.00;;;6.15;;
20629;SDS011;17386;43.846;25.950;2024-01-07T11:54:11;11.05;;;6.05;;
20629;SDS011;17386;43.846;25.950;2024-01-07T11:56:37;10.02;;;5.45;;
20629;SDS011;17386;43.846;25.950;2024-01-07T11:59:05;10.65;;;6.60;;
20629;SDS011;17386;43.846;25.950;2024-01-07T12:01:33;11.40;;;5.68;;
20629;SDS011;17386;43.846;25.950;2024-01-07T12:03:58;10.55;;;6.63;;
20629;SDS011;17386;43.846;25.950;2024-01-07T12:06:24;9.18;;;4.72;;
20629;SDS011;17386;43.846;25.950;2024-01-07T12:08:50;9.40;;;4.57;;
20629;SDS011;17386;43.846;25.950;2024-01-07T12:11:15;10.20;;;4.97;;
20629;SDS011;17386;43.846;25.950;2024-01-07T12:13:41;8.65;;;4.28;;
20629;SDS011;17386;43.846;25.950;2024-01-07T12:16:08;9.27;;;4.35;;
20629;SDS011;17386;43.846;25.950;2024-01-07T12:18:37;9.27;;;4.32;;
20629;SDS011;17386;43.846;25.950;2024-01-07T12:21:05;10.05;;;4.60;;
20629;SDS011;17386;43.846;25.950;2024-01-07T12:23:34;12.27;;;6.35;;
20629;SDS011;17386;43.846;25.950;2024-01-07T12:26:07;7.13;;;3.47;;
20629;SDS011;17386;43.846;25.950;2024-01-07T12:28:34;9.73;;;4.95;;
20629;SDS011;17386;43.846;25.950;2024-01-07T12:30:59;7.38;;;3.63;;
20629;SDS011;17386;43.846;25.950;2024-01-07T12:33:26;6.68;;;3.35;;
20629;SDS011;17386;43.846;25.950;2024-01-07T12:35:53;6.63;;;3.30;;
20629;SDS011;17386;43.846;25.950;2024-01-07T12:38:29;7.20;;;3.28;;
20629;SDS011;17386;43.846;25.950;2024-01-07T12:40:54;5.38;;;2.72;;
20629;SDS011;17386;43.846;25.950;2024-01-07T12:43:20;4.97;;;3.00;;
20629;SDS011;17386;43.846;25.950;2024-01-07T12:45:47;7.55;;;3.78;;
20629;SDS011;17386;43.846;25.950;2024-01-07T12:48:13;7.93;;;3.53;;
20629;SDS011;17386;43.846;25.950;2024-01-07T12:50:39;9.05;;;4.20;;
20629;SDS011;17386;43.846;25.950;2024-01-07T12:53:04;10.20;;;4.68;;
20629;SDS011;17386;43.846;25.950;2024-01-07T12:55:30;9.65;;;4.85;;
20629;SDS011;17386;43.846;25.950;2024-01-07T12:57:56;8.38;;;4.60;;
20629;SDS011;17386;43.846;25.950;2024-01-07T13:00:23;8.27;;;4.15;;
20629;SDS011;17386;43.846;25.950;2024-01-07T13:02:48;9.88;;;4.40;;
20629;SDS011;17386;43.846;25.950;2024-01-07T13:05:14;9.27;;;4.80;;
20629;SDS011;17386;43.846;25.950;2024-01-07T13:07:40;9.73;;;5.15;;
20629;SDS011;17386;43.846;25.950;2024-01-07T13:10:05;7.18;;;4.10;;
20629;SDS011;17386;43.846;25.950;2024-01-07T13:12:31;11.40;;;5.40;;
20629;SDS011;17386;43.846;25.950;2024-01-07T13:14:57;10.25;;;4.82;;
20629;SDS011;17386;43.846;25.950;2024-01-07T13:17:22;9.40;;;5.07;;
20629;SDS011;17386;43.846;25.950;2024-01-07T13:19:47;9.15;;;4.85;;
20629;SDS011;17386;43.846;25.950;2024-01-07T13:22:13;9.68;;;4.80;;
20629;SDS011;17386;43.846;25.950;2024-01-07T13:24:39;11.15;;;5.53;;
20629;SDS011;17386;43.846;25.950;2024-01-07T13:27:06;16.05;;;7.50;;
20629;SDS011;17386;43.846;25.950;2024-01-07T13:29:33;14.85;;;7.95;;
20629;SDS011;17386;43.846;25.950;2024-01-07T13:31:59;12.60;;;6.32;;
20629;SDS011;17386;43.846;25.950;2024-01-07T13:34:24;17.00;;;7.13;;
20629;SDS011;17386;43.846;25.950;2024-01-07T13:36:50;11.18;;;5.93;;
20629;SDS011;17386;43.846;25.950;2024-01-07T13:39:16;11.75;;;5.90;;
20629;SDS011;17386;43.846;25.950;2024-01-07T13:41:46;12.52;;;5.82;;
20629;SDS011;17386;43.846;25.950;2024-01-07T13:44:11;14.40;;;5.82;;
20629;SDS011;17386;43.846;25.950;2024-01-07T13:46:45;14.48;;;6.28;;
20629;SDS011;17386;43.846;25.950;2024-01-07T13:49:12;13.63;;;5.75;;
20629;SDS011;17386;43.846;25.950;2024-01-07T13:51:38;13.93;;;6.85;;
20629;SDS011;17386;43.846;25.950;2024-01-07T13:54:04;17.75;;;8.88;;
20629;SDS011;17386;43.846;25.950;2024-01-07T13:56:31;15.20;;;7.85;;
20629;SDS011;17386;43.846;25.950;2024-01-07T13:58:56;19.42;;;8.32;;
20629;SDS011;17386;43.846;25.950;2024-01-07T14:01:21;17.33;;;7.68;;
20629;SDS011;17386;43.846;25.950;2024-01-07T14:03:47;18.88;;;8.88;;
20629;SDS011;17386;43.846;25.950;2024-01-07T14:06:12;16.45;;;8.00;;
20629;SDS011;17386;43.846;25.950;2024-01-07T14:08:38;15.25;;;8.88;;
20629;SDS011;17386;43.846;25.950;2024-01-07T14:11:03;14.40;;;7.75;;
20629;SDS011;17386;43.846;25.950;2024-01-07T14:13:32;16.40;;;7.85;;
20629;SDS011;17386;43.846;25.950;2024-01-07T14:15:57;15.15;;;7.63;;
20629;SDS011;17386;43.846;25.950;2024-01-07T14:18:23;16.60;;;7.82;;
20629;SDS011;17386;43.846;25.950;2024-01-07T14:20:48;17.88;;;7.60;;
20629;SDS011;17386;43.846;25.950;2024-01-07T14:23:14;14.82;;;7.82;;
20629;SDS011;17386;43.846;25.950;2024-01-07T14:25:39;13.85;;;7.70;;
20629;SDS011;17386;43.846;25.950;2024-01-07T14:28:08;17.65;;;8.35;;
20629;SDS011;17386;43.846;25.950;2024-01-07T14:30:33;18.58;;;8.90;;